Terminal Aerodrome Forecast
Issued by NWS Northern Indiana

Home | Current Version | Previous Version | Text Only | Print | Product List | Glossary On
Versions: 1 2 3 4 5 6 7 8 9 10 11 12 13 14
000
FTUS43 KIWX 210400 AAA
TAFFWA
TAF AMD
KFWA 210400Z 2104/2124 04006KT 3SM BR OVC004
     FM211100 36006KT 4SM BR SCT025 BKN250
     FM211400 35008KT P6SM SCT150 BKN200=

USA.gov is the U.S. government's official web portal to all federal, state and local government web resources and services.